sensor_id;sensor_type;location;lat;lon;timestamp;pressure;altitude;pressure_sealevel;temperature;humidity
60228;BME280;46091;46.512;6.626;2024-02-21T06:03:16;97647.09;;;10.15;59.07
60228;BME280;46091;46.512;6.626;2024-02-21T06:05:19;97650.19;;;10.43;58.68
60228;BME280;46091;46.512;6.626;2024-02-21T06:07:22;97653.09;;;10.65;58.54
60228;BME280;46091;46.512;6.626;2024-02-21T06:09:24;97650.34;;;10.81;58.08
60228;BME280;46091;46.512;6.626;2024-02-21T06:11:27;97643.31;;;10.96;58.00
60228;BME280;46091;46.512;6.626;2024-02-21T06:13:31;97644.56;;;11.08;57.88
60228;BME280;46091;46.512;6.626;2024-02-21T06:15:34;97639.22;;;11.17;57.22
60228;BME280;46091;46.512;6.626;2024-02-21T06:17:36;97642.81;;;11.24;57.03
60228;BME280;46091;46.512;6.626;2024-02-21T06:19:42;97641.44;;;11.28;56.89
60228;BME280;46091;46.512;6.626;2024-02-21T06:21:45;97641.75;;;11.33;56.85
60228;BME280;46091;46.512;6.626;2024-02-21T06:23:48;97637.56;;;11.38;56.95
60228;BME280;46091;46.512;6.626;2024-02-21T06:25:51;97642.16;;;11.45;56.78
60228;BME280;46091;46.512;6.626;2024-02-21T06:27:54;97633.03;;;11.47;56.68
60228;BME280;46091;46.512;6.626;2024-02-21T06:29:57;97641.44;;;11.51;56.43
60228;BME280;46091;46.512;6.626;2024-02-21T06:32:02;97643.72;;;11.54;56.49
60228;BME280;46091;46.512;6.626;2024-02-21T06:34:05;97645.22;;;11.56;56.17
60228;BME280;46091;46.512;6.626;2024-02-21T06:36:09;97645.84;;;11.58;56.18
60228;BME280;46091;46.512;6.626;2024-02-21T06:38:12;97654.44;;;11.60;56.08
60228;BME280;46091;46.512;6.626;2024-02-21T06:40:17;97663.84;;;11.63;56.07
60228;BME280;46091;46.512;6.626;2024-02-21T06:42:20;97667.13;;;11.65;56.10
60228;BME280;46091;46.512;6.626;2024-02-21T06:44:23;97667.94;;;11.65;55.88
60228;BME280;46091;46.512;6.626;2024-02-21T06:46:27;97666.13;;;11.66;55.95
60228;BME280;46091;46.512;6.626;2024-02-21T06:48:31;97662.66;;;11.65;56.12
60228;BME280;46091;46.512;6.626;2024-02-21T06:50:34;97662.66;;;11.65;55.67
60228;BME280;46091;46.512;6.626;2024-02-21T06:52:38;97672.28;;;11.66;55.84
60228;BME280;46091;46.512;6.626;2024-02-21T06:54:41;97676.72;;;11.66;55.70
60228;BME280;46091;46.512;6.626;2024-02-21T06:56:44;97678.53;;;11.65;55.46
60228;BME280;46091;46.512;6.626;2024-02-21T06:58:47;97684.84;;;11.64;55.50
60228;BME280;46091;46.512;6.626;2024-02-21T07:00:50;97685.53;;;11.66;55.37
60228;BME280;46091;46.512;6.626;2024-02-21T07:02:53;97687.16;;;11.68;55.53
60228;BME280;46091;46.512;6.626;2024-02-21T07:04:56;97682.69;;;11.68;55.63
60228;BME280;46091;46.512;6.626;2024-02-21T07:06:59;97672.91;;;11.69;55.54
60228;BME280;46091;46.512;6.626;2024-02-21T07:09:03;97685.16;;;11.70;55.47
60228;BME280;46091;46.512;6.626;2024-02-21T07:11:06;97690.44;;;11.70;55.28
60228;BME280;46091;46.512;6.626;2024-02-21T07:13:09;97687.16;;;11.68;54.98
60228;BME280;46091;46.512;6.626;2024-02-21T07:15:12;97688.16;;;11.66;55.20
60228;BME280;46091;46.512;6.626;2024-02-21T07:17:15;97674.94;;;11.66;54.91
60228;BME280;46091;46.512;6.626;2024-02-21T07:19:18;97676.56;;;11.68;55.08
60228;BME280;46091;46.512;6.626;2024-02-21T07:21:21;97685.53;;;11.66;54.78
60228;BME280;46091;46.512;6.626;2024-02-21T07:23:24;97673.25;;;11.65;54.72
60228;BME280;46091;46.512;6.626;2024-02-21T07:25:28;97682.00;;;11.66;54.90
60228;BME280;46091;46.512;6.626;2024-02-21T07:27:32;97677.91;;;11.63;54.86
60228;BME280;46091;46.512;6.626;2024-02-21T07:29:35;97667.94;;;11.65;54.67
60228;BME280;46091;46.512;6.626;2024-02-21T07:31:40;97680.22;;;11.66;54.62
60228;BME280;46091;46.512;6.626;2024-02-21T07:33:43;97671.09;;;11.69;54.68
60228;BME280;46091;46.512;6.626;2024-02-21T07:35:46;97666.44;;;11.71;54.72
60228;BME280;46091;46.512;6.626;2024-02-21T07:37:49;97673.38;;;11.72;54.39
60228;BME280;46091;46.512;6.626;2024-02-21T07:39:52;97672.56;;;11.72;54.61
60228;BME280;46091;46.512;6.626;2024-02-21T07:41:57;97678.84;;;11.71;54.67
60228;BME280;46091;46.512;6.626;2024-02-21T07:44:00;97674.56;;;11.70;54.58
60228;BME280;46091;46.512;6.626;2024-02-21T07:46:05;97675.91;;;11.65;54.62
60228;BME280;46091;46.512;6.626;2024-02-21T07:48:08;97677.56;;;11.66;54.73
60228;BME280;46091;46.512;6.626;2024-02-21T07:50:11;97673.72;;;11.69;54.88
60228;BME280;46091;46.512;6.626;2024-02-21T07:52:14;97673.38;;;11.72;54.76
60228;BME280;46091;46.512;6.626;2024-02-21T07:54:17;97665.25;;;11.74;54.88
60228;BME280;46091;46.512;6.626;2024-02-21T07:56:22;97672.19;;;11.75;54.58
60228;BME280;46091;46.512;6.626;2024-02-21T07:58:26;97670.91;;;11.71;54.47
60228;BME280;46091;46.512;6.626;2024-02-21T08:00:29;97671.91;;;11.70;54.98
60228;BME280;46091;46.512;6.626;2024-02-21T08:02:32;97666.63;;;11.70;54.81
60228;BME280;46091;46.512;6.626;2024-02-21T08:04:34;97675.38;;;11.70;54.53
60228;BME280;46091;46.512;6.626;2024-02-21T08:06:37;97670.09;;;11.70;54.67
60228;BME280;46091;46.512;6.626;2024-02-21T08:08:40;97663.97;;;11.70;54.57
60228;BME280;46091;46.512;6.626;2024-02-21T08:10:43;97662.31;;;11.69;54.94
60228;BME280;46091;46.512;6.626;2024-02-21T08:12:46;97664.97;;;11.69;54.90
60228;BME280;46091;46.512;6.626;2024-02-21T08:14:50;97664.31;;;11.66;54.73
60228;BME280;46091;46.512;6.626;2024-02-21T08:16:53;97669.63;;;11.66;54.97
60228;BME280;46091;46.512;6.626;2024-02-21T08:18:57;97668.63;;;11.68;55.04
60228;BME280;46091;46.512;6.626;2024-02-21T08:21:01;97661.50;;;11.68;54.74
60228;BME280;46091;46.512;6.626;2024-02-21T08:23:04;97657.84;;;11.69;54.89
60228;BME280;46091;46.512;6.626;2024-02-21T08:25:08;97656.66;;;11.72;54.62
60228;BME280;46091;46.512;6.626;2024-02-21T08:27:11;97657.09;;;11.75;54.82
60228;BME280;46091;46.512;6.626;2024-02-21T08:29:14;97658.94;;;11.75;54.95
60228;BME280;46091;46.512;6.626;2024-02-21T08:31:20;97652.00;;;11.74;54.93
60228;BME280;46091;46.512;6.626;2024-02-21T08:33:24;97648.97;;;11.77;54.61
60228;BME280;46091;46.512;6.626;2024-02-21T08:35:28;97645.19;;;11.79;54.76
60228;BME280;46091;46.512;6.626;2024-02-21T08:37:31;97650.31;;;11.81;54.91
60228;BME280;46091;46.512;6.626;2024-02-21T08:39:34;97642.56;;;11.79;54.64
60228;BME280;46091;46.512;6.626;2024-02-21T08:41:37;97643.38;;;11.80;54.56
60228;BME280;46091;46.512;6.626;2024-02-21T08:43:57;97637.06;;;11.81;54.71
60228;BME280;46091;46.512;6.626;2024-02-21T08:46:00;97633.59;;;11.80;54.68
60228;BME280;46091;46.512;6.626;2024-02-21T08:48:05;97637.06;;;11.81;54.71
60228;BME280;46091;46.512;6.626;2024-02-21T08:50:09;97639.34;;;11.84;54.84
60228;BME280;46091;46.512;6.626;2024-02-21T08:52:27;97637.34;;;11.86;54.80
60228;BME280;46091;46.512;6.626;2024-02-21T08:54:30;97655.69;;;11.87;54.60
60228;BME280;46091;46.512;6.626;2024-02-21T08:56:34;97653.25;;;11.86;54.43
60228;BME280;46091;46.512;6.626;2024-02-21T08:58:38;97643.81;;;11.83;54.61
60228;BME280;46091;46.512;6.626;2024-02-21T09:00:42;97644.66;;;11.84;54.53
60228;BME280;46091;46.512;6.626;2024-02-21T09:02:45;97650.78;;;11.84;54.87
60228;BME280;46091;46.512;6.626;2024-02-21T09:04:49;97647.94;;;11.86;54.81
60228;BME280;46091;46.512;6.626;2024-02-21T09:06:52;97643.94;;;11.90;54.53
60228;BME280;46091;46.512;6.626;2024-02-21T09:08:56;97643.22;;;11.96;54.46
60228;BME280;46091;46.512;6.626;2024-02-21T09:10:59;97639.19;;;12.00;54.54
60228;BME280;46091;46.512;6.626;2024-02-21T09:13:03;97639.84;;;12.02;54.61
60228;BME280;46091;46.512;6.626;2024-02-21T09:15:07;97641.50;;;12.03;54.71
60228;BME280;46091;46.512;6.626;2024-02-21T09:17:10;97646.78;;;12.03;54.54
60228;BME280;46091;46.512;6.626;2024-02-21T09:19:14;97638.84;;;12.03;54.72
60228;BME280;46091;46.512;6.626;2024-02-21T09:21:21;97639.84;;;12.02;54.35
60228;BME280;46091;46.512;6.626;2024-02-21T09:23:24;97647.44;;;12.05;54.55
60228;BME280;46091;46.512;6.626;2024-02-21T09:25:27;97636.81;;;12.05;54.63
60228;BME280;46091;46.512;6.626;2024-02-21T09:27:30;97639.66;;;12.04;54.31
60228;BME280;46091;46.512;6.626;2024-02-21T09:29:33;97639.03;;;12.02;54.62
60228;BME280;46091;46.512;6.626;2024-02-21T09:31:36;97640.56;;;11.96;54.32
60228;BME280;46091;46.512;6.626;2024-02-21T09:33:41;97640.38;;;11.98;54.65
60228;BME280;46091;46.512;6.626;2024-02-21T09:35:44;97640.03;;;12.01;54.58
60228;BME280;46091;46.512;6.626;2024-02-21T09:37:48;97646.97;;;12.02;54.39
60228;BME280;46091;46.512;6.626;2024-02-21T09:39:52;97641.50;;;12.03;54.54
60228;BME280;46091;46.512;6.626;2024-02-21T09:41:59;97640.47;;;12.04;54.27
60228;BME280;46091;46.512;6.626;2024-02-21T09:44:06;97643.94;;;12.05;54.42
60228;BME280;46091;46.512;6.626;2024-02-21T09:46:16;97636.00;;;12.05;54.25
60228;BME280;46091;46.512;6.626;2024-02-21T09:48:29;97654.75;;;12.03;54.25
60228;BME280;46091;46.512;6.626;2024-02-21T09:50:40;97646.59;;;12.05;54.40
60228;BME280;46091;46.512;6.626;2024-02-21T09:52:44;97641.75;;;12.08;54.17
60228;BME280;46091;46.512;6.626;2024-02-21T09:54:49;97640.75;;;12.09;54.37
60228;BME280;46091;46.512;6.626;2024-02-21T09:56:54;97635.25;;;12.11;54.23
60228;BME280;46091;46.512;6.626;2024-02-21T09:58:57;97636.09;;;12.11;54.24
60228;BME280;46091;46.512;6.626;2024-02-21T10:01:01;97630.78;;;12.11;53.96
60228;BME280;46091;46.512;6.626;2024-02-21T10:03:21;97629.81;;;12.12;53.86
60228;BME280;46091;46.512;6.626;2024-02-21T10:05:25;97628.78;;;12.13;54.26
60228;BME280;46091;46.512;6.626;2024-02-21T10:07:27;97629.25;;;12.17;53.98
60228;BME280;46091;46.512;6.626;2024-02-21T10:09:30;97619.91;;;12.21;54.06
60228;BME280;46091;46.512;6.626;2024-02-21T10:11:36;97618.75;;;12.23;54.02
60228;BME280;46091;46.512;6.626;2024-02-21T10:13:39;97612.25;;;12.26;53.72
60228;BME280;46091;46.512;6.626;2024-02-21T10:15:43;97610.22;;;12.28;53.60
60228;BME280;46091;46.512;6.626;2024-02-21T10:17:45;97620.00;;;12.28;53.64
60228;BME280;46091;46.512;6.626;2024-02-21T10:19:48;97618.00;;;12.30;53.78
60228;BME280;46091;46.512;6.626;2024-02-21T10:22:03;97610.22;;;12.28;53.27
60228;BME280;46091;46.512;6.626;2024-02-21T10:24:07;97604.94;;;12.28;53.46
60228;BME280;46091;46.512;6.626;2024-02-21T10:26:12;97612.69;;;12.30;53.25
60228;BME280;46091;46.512;6.626;2024-02-21T10:28:16;97608.22;;;12.30;53.17
60228;BME280;46091;46.512;6.626;2024-02-21T10:30:19;97607.00;;;12.33;53.30
60228;BME280;46091;46.512;6.626;2024-02-21T10:32:22;97601.72;;;12.33;53.02
60228;BME280;46091;46.512;6.626;2024-02-21T10:34:28;97600.06;;;12.32;52.97
60228;BME280;46091;46.512;6.626;2024-02-21T10:36:31;97589.41;;;12.25;52.75
60228;BME280;46091;46.512;6.626;2024-02-21T10:38:35;97596.78;;;12.30;52.53
60228;BME280;46091;46.512;6.626;2024-02-21T10:40:38;97583.53;;;12.30;52.76
60228;BME280;46091;46.512;6.626;2024-02-21T10:42:42;97579.22;;;12.29;52.55
60228;BME280;46091;46.512;6.626;2024-02-21T10:44:49;97574.94;;;12.28;52.42
60228;BME280;46091;46.512;6.626;2024-02-21T10:46:55;97563.78;;;12.32;52.40
60228;BME280;46091;46.512;6.626;2024-02-21T10:49:03;97570.56;;;12.35;51.91
60228;BME280;46091;46.512;6.626;2024-02-21T10:51:15;97576.69;;;12.35;51.86
60228;BME280;46091;46.512;6.626;2024-02-21T10:53:24;97570.00;;;12.39;51.81
60228;BME280;46091;46.512;6.626;2024-02-21T10:55:38;97559.19;;;12.41;51.81
60228;BME280;46091;46.512;6.626;2024-02-21T10:57:44;97563.47;;;12.42;51.39
60228;BME280;46091;46.512;6.626;2024-02-21T10:59:49;97556.34;;;12.42;51.67
60228;BME280;46091;46.512;6.626;2024-02-21T11:01:52;97545.56;;;12.44;51.30
60228;BME280;46091;46.512;6.626;2024-02-21T11:04:03;97546.03;;;12.47;51.20
60228;BME280;46091;46.512;6.626;2024-02-21T11:06:07;97532.75;;;12.47;51.45
60228;BME280;46091;46.512;6.626;2024-02-21T11:08:11;97523.78;;;12.48;51.43
60228;BME280;46091;46.512;6.626;2024-02-21T11:10:20;97523.78;;;12.48;51.15
60228;BME280;46091;46.512;6.626;2024-02-21T11:12:25;97515.47;;;12.51;50.92
60228;BME280;46091;46.512;6.626;2024-02-21T11:14:29;97511.59;;;12.54;51.17
60228;BME280;46091;46.512;6.626;2024-02-21T11:16:37;97504.94;;;12.58;51.14
60228;BME280;46091;46.512;6.626;2024-02-21T11:18:43;97503.53;;;12.62;50.82
60228;BME280;46091;46.512;6.626;2024-02-21T11:20:50;97490.06;;;12.64;50.76
60228;BME280;46091;46.512;6.626;2024-02-21T11:22:53;97487.22;;;12.65;50.98
60228;BME280;46091;46.512;6.626;2024-02-21T11:25:06;97486.84;;;12.68;50.86
60228;BME280;46091;46.512;6.626;2024-02-21T11:27:11;97485.66;;;12.71;50.79
60228;BME280;46091;46.512;6.626;2024-02-21T11:29:23;97484.28;;;12.75;50.72
60228;BME280;46091;46.512;6.626;2024-02-21T11:31:27;97478.78;;;12.76;50.82
60228;BME280;46091;46.512;6.626;2024-02-21T11:33:42;97467.16;;;12.77;50.51
60228;BME280;46091;46.512;6.626;2024-02-21T11:35:45;97462.84;;;12.76;50.50
60228;BME280;46091;46.512;6.626;2024-02-21T11:37:48;97460.19;;;12.76;50.60
60228;BME280;46091;46.512;6.626;2024-02-21T11:39:50;97458.56;;;12.75;50.62
60228;BME280;46091;46.512;6.626;2024-02-21T11:42:01;97449.59;;;12.76;50.50
60228;BME280;46091;46.512;6.626;2024-02-21T11:44:05;97447.94;;;12.75;50.52
60228;BME280;46091;46.512;6.626;2024-02-21T11:46:08;97447.56;;;12.78;50.37
60228;BME280;46091;46.512;6.626;2024-02-21T11:48:11;97441.44;;;12.78;50.22
60228;BME280;46091;46.512;6.626;2024-02-21T11:50:16;97441.22;;;12.79;49.95
60228;BME280;46091;46.512;6.626;2024-02-21T11:52:23;97437.75;;;12.79;50.01
60228;BME280;46091;46.512;6.626;2024-02-21T11:54:28;97428.81;;;12.80;49.91
60228;BME280;46091;46.512;6.626;2024-02-21T11:56:30;97423.50;;;12.80;50.11
60228;BME280;46091;46.512;6.626;2024-02-21T11:58:33;97425.16;;;12.81;50.22
60228;BME280;46091;46.512;6.626;2024-02-21T12:00:36;97423.50;;;12.80;49.68
60228;BME280;46091;46.512;6.626;2024-02-21T12:02:39;97416.19;;;12.82;49.81
60228;BME280;46091;46.512;6.626;2024-02-21T12:04:43;97405.38;;;12.83;49.72
60228;BME280;46091;46.512;6.626;2024-02-21T12:06:48;97407.19;;;12.83;49.97
60228;BME280;46091;46.512;6.626;2024-02-21T12:08:52;97399.03;;;12.85;50.20
60228;BME280;46091;46.512;6.626;2024-02-21T12:10:55;97394.34;;;12.87;50.09
60228;BME280;46091;46.512;6.626;2024-02-21T12:13:05;97394.13;;;12.81;49.54
60228;BME280;46091;46.512;6.626;2024-02-21T12:15:09;97388.16;;;12.79;49.97
60228;BME280;46091;46.512;6.626;2024-02-21T12:17:12;97383.50;;;12.81;49.79
60228;BME280;46091;46.512;6.626;2024-02-21T12:19:16;97374.16;;;12.86;49.87
60228;BME280;46091;46.512;6.626;2024-02-21T12:21:19;97375.78;;;12.87;49.67
60228;BME280;46091;46.512;6.626;2024-02-21T12:23:28;97372.50;;;12.85;49.84
60228;BME280;46091;46.512;6.626;2024-02-21T12:25:30;97368.22;;;12.83;49.75
60228;BME280;46091;46.512;6.626;2024-02-21T12:27:34;97361.06;;;12.84;50.01
60228;BME280;46091;46.512;6.626;2024-02-21T12:29:37;97355.19;;;12.89;49.69
60228;BME280;46091;46.512;6.626;2024-02-21T12:31:42;97354.56;;;12.87;49.91
60228;BME280;46091;46.512;6.626;2024-02-21T12:33:48;97343.13;;;12.86;49.70
60228;BME280;46091;46.512;6.626;2024-02-21T12:35:51;97335.59;;;12.90;49.93
60228;BME280;46091;46.512;6.626;2024-02-21T12:37:56;97340.53;;;12.93;49.99
60228;BME280;46091;46.512;6.626;2024-02-21T12:40:00;97329.50;;;12.96;50.03
60228;BME280;46091;46.512;6.626;2024-02-21T12:42:08;97317.88;;;12.97;49.81
60228;BME280;46091;46.512;6.626;2024-02-21T12:44:13;97307.69;;;13.00;49.58
60228;BME280;46091;46.512;6.626;2024-02-21T12:46:18;97302.00;;;13.03;49.81
60228;BME280;46091;46.512;6.626;2024-02-21T12:48:20;97305.47;;;13.04;49.38
60228;BME280;46091;46.512;6.626;2024-02-21T12:50:24;97301.81;;;13.05;48.96
60228;BME280;46091;46.512;6.626;2024-02-21T12:52:27;97295.00;;;12.96;48.52
60228;BME280;46091;46.512;6.626;2024-02-21T12:54:30;97287.25;;;12.94;48.62
60228;BME280;46091;46.512;6.626;2024-02-21T12:56:35;97280.94;;;12.95;48.48
60228;BME280;46091;46.512;6.626;2024-02-21T12:58:37;97281.13;;;12.94;48.82
60228;BME280;46091;46.512;6.626;2024-02-21T13:00:40;97269.91;;;12.98;49.08
60228;BME280;46091;46.512;6.626;2024-02-21T13:02:43;97264.03;;;13.03;48.96
60228;BME280;46091;46.512;6.626;2024-02-21T13:04:47;97249.34;;;13.07;48.75
60228;BME280;46091;46.512;6.626;2024-02-21T13:06:50;97251.59;;;13.10;48.45
60228;BME280;46091;46.512;6.626;2024-02-21T13:08:53;97248.13;;;13.09;48.61
60228;BME280;46091;46.512;6.626;2024-02-21T13:10:56;97250.56;;;13.11;48.65
60228;BME280;46091;46.512;6.626;2024-02-21T13:13:01;97239.59;;;13.14;48.89
60228;BME280;46091;46.512;6.626;2024-02-21T13:15:06;97226.91;;;13.16;48.70
60228;BME280;46091;46.512;6.626;2024-02-21T13:17:08;97226.72;;;13.18;48.51
60228;BME280;46091;46.512;6.626;2024-02-21T13:19:11;97225.53;;;13.20;48.50
60228;BME280;46091;46.512;6.626;2024-02-21T13:21:15;97222.47;;;13.23;48.56
60228;BME280;46091;46.512;6.626;2024-02-21T13:23:20;97208.00;;;13.26;48.59
60228;BME280;46091;46.512;6.626;2024-02-21T13:25:23;97203.09;;;13.29;48.63
60228;BME280;46091;46.512;6.626;2024-02-21T13:27:27;97195.94;;;13.30;47.99
60228;BME280;46091;46.512;6.626;2024-02-21T13:29:30;97196.97;;;13.29;47.91
60228;BME280;46091;46.512;6.626;2024-02-21T13:31:34;97182.88;;;13.28;48.08
60228;BME280;46091;46.512;6.626;2024-02-21T13:33:36;97190.63;;;13.30;48.01
60228;BME280;46091;46.512;6.626;2024-02-21T13:35:40;97182.47;;;13.31;48.33
60228;BME280;46091;46.512;6.626;2024-02-21T13:37:43;97176.94;;;13.33;48.20
60228;BME280;46091;46.512;6.626;2024-02-21T13:39:46;97165.31;;;13.34;48.25
60228;BME280;46091;46.512;6.626;2024-02-21T13:41:49;97173.06;;;13.35;48.12
60228;BME280;46091;46.512;6.626;2024-02-21T13:43:52;97162.44;;;13.35;47.79
60228;BME280;46091;46.512;6.626;2024-02-21T13:45:57;97163.47;;;13.34;47.94
60228;BME280;46091;46.512;6.626;2024-02-21T13:48:01;97156.31;;;13.35;47.75
60228;BME280;46091;46.512;6.626;2024-02-21T13:50:05;97153.50;;;13.36;47.68
60228;BME280;46091;46.512;6.626;2024-02-21T13:52:07;97143.88;;;13.35;47.82
60228;BME280;46091;46.512;6.626;2024-02-21T13:54:11;97141.84;;;13.37;47.27
60228;BME280;46091;46.512;6.626;2024-02-21T13:56:18;97141.19;;;13.35;47.51
60228;BME280;46091;46.512;6.626;2024-02-21T13:58:21;97134.91;;;13.36;47.72
60228;BME280;46091;46.512;6.626;2024-02-21T14:00:23;97134.91;;;13.36;47.31
60228;BME280;46091;46.512;6.626;2024-02-21T14:02:30;97129.59;;;13.36;47.25
60228;BME280;46091;46.512;6.626;2024-02-21T14:04:33;97118.97;;;13.36;46.97
60228;BME280;46091;46.512;6.626;2024-02-21T14:06:36;97128.75;;;13.36;47.28
60228;BME280;46091;46.512;6.626;2024-02-21T14:08:44;97112.63;;;13.37;47.29
60228;BME280;46091;46.512;6.626;2024-02-21T14:10:47;97107.94;;;13.39;47.34
60228;BME280;46091;46.512;6.626;2024-02-21T14:12:50;97106.09;;;13.40;47.54
60228;BME280;46091;46.512;6.626;2024-02-21T14:14:53;97095.69;;;13.38;47.54
60228;BME280;46091;46.512;6.626;2024-02-21T14:16:58;97093.63;;;13.40;47.86
60228;BME280;46091;46.512;6.626;2024-02-21T14:19:03;97087.28;;;13.42;47.81
60228;BME280;46091;46.512;6.626;2024-02-21T14:21:06;97094.25;;;13.43;47.88
60228;BME280;46091;46.512;6.626;2024-02-21T14:23:09;97095.47;;;13.40;47.79
60228;BME280;46091;46.512;6.626;2024-02-21T14:25:12;97084.84;;;13.40;48.10
60228;BME280;46091;46.512;6.626;2024-02-21T14:27:17;97084.63;;;13.42;47.82
60228;BME280;46091;46.512;6.626;2024-02-21T14:29:21;97085.25;;;13.44;47.92
60228;BME280;46091;46.512;6.626;2024-02-21T14:31:25;97082.81;;;13.42;48.06
60228;BME280;46091;46.512;6.626;2024-02-21T14:33:27;97086.47;;;13.41;47.90
60228;BME280;46091;46.512;6.626;2024-02-21T14:35:32;97073.41;;;13.39;47.95
60228;BME280;46091;46.512;6.626;2024-02-21T14:37:36;97071.16;;;13.43;48.16
60228;BME280;46091;46.512;6.626;2024-02-21T14:39:39;97077.28;;;13.44;48.06
60228;BME280;46091;46.512;6.626;2024-02-21T14:41:42;97069.09;;;13.45;48.05
60228;BME280;46091;46.512;6.626;2024-02-21T14:43:45;97069.94;;;13.46;47.86
60228;BME280;46091;46.512;6.626;2024-02-21T14:45:49;97075.22;;;13.46;47.65
60228;BME280;46091;46.512;6.626;2024-02-21T14:47:52;97063.78;;;13.45;47.59
60228;BME280;46091;46.512;6.626;2024-02-21T14:49:57;97056.84;;;13.44;47.49
60228;BME280;46091;46.512;6.626;2024-02-21T14:52:02;97061.34;;;13.44;47.29
60228;BME280;46091;46.512;6.626;2024-02-21T14:54:05;97039.91;;;13.45;47.42
60228;BME280;46091;46.512;6.626;2024-02-21T14:56:12;97044.38;;;13.45;47.27
60228;BME280;46091;46.512;6.626;2024-02-21T14:58:16;97045.00;;;13.47;47.59
60228;BME280;46091;46.512;6.626;2024-02-21T15:00:22;97038.66;;;13.48;47.14
60228;BME280;46091;46.512;6.626;2024-02-21T15:02:31;97031.72;;;13.47;47.09
60228;BME280;46091;46.512;6.626;2024-02-21T15:04:35;97025.59;;;13.46;47.29
60228;BME280;46091;46.512;6.626;2024-02-21T15:06:37;97019.06;;;13.49;46.96
60228;BME280;46091;46.512;6.626;2024-02-21T15:08:42;97034.00;;;13.50;47.36
60228;BME280;46091;46.512;6.626;2024-02-21T15:10:45;97019.91;;;13.49;47.04
60228;BME280;46091;46.512;6.626;2024-02-21T15:12:47;97014.38;;;13.51;47.07
60228;BME280;46091;46.512;6.626;2024-02-21T15:14:51;97014.38;;;13.51;46.93
60228;BME280;46091;46.512;6.626;2024-02-21T15:16:54;97007.22;;;13.51;46.84
60228;BME280;46091;46.512;6.626;2024-02-21T15:18:57;97009.44;;;13.54;47.06
60228;BME280;46091;46.512;6.626;2024-02-21T15:21:00;97011.28;;;13.54;47.10
60228;BME280;46091;46.512;6.626;2024-02-21T15:23:03;97014.75;;;13.54;46.99
60228;BME280;46091;46.512;6.626;2024-02-21T15:25:09;97013.53;;;13.57;46.89
60228;BME280;46091;46.512;6.626;2024-02-21T15:27:16;97014.13;;;13.59;46.86
60228;BME280;46091;46.512;6.626;2024-02-21T15:29:19;97014.13;;;13.59;46.72
60228;BME280;46091;46.512;6.626;2024-02-21T15:31:23;97011.28;;;13.60;46.78
60228;BME280;46091;46.512;6.626;2024-02-21T15:33:26;97001.50;;;13.61;46.69
60228;BME280;46091;46.512;6.626;2024-02-21T15:35:30;97006.59;;;13.62;46.93
60228;BME280;46091;46.512;6.626;2024-02-21T15:37:33;97011.69;;;13.64;46.70
60228;BME280;46091;46.512;6.626;2024-02-21T15:39:37;97001.88;;;13.64;46.81
60228;BME280;46091;46.512;6.626;2024-02-21T15:41:41;96995.75;;;13.64;46.56
60228;BME280;46091;46.512;6.626;2024-02-21T15:43:44;96986.53;;;13.66;46.68
60228;BME280;46091;46.512;6.626;2024-02-21T15:45:47;96979.38;;;13.67;46.63
60228;BME280;46091;46.512;6.626;2024-02-21T15:47:51;96984.69;;;13.67;46.61
60228;BME280;46091;46.512;6.626;2024-02-21T15:49:56;96992.47;;;13.68;46.53
60228;BME280;46091;46.512;6.626;2024-02-21T15:51:59;96964.25;;;13.67;46.67
60228;BME280;46091;46.512;6.626;2024-02-21T15:54:01;96973.69;;;13.63;46.91
60228;BME280;46091;46.512;6.626;2024-02-21T15:56:05;96978.19;;;13.63;46.89
60228;BME280;46091;46.512;6.626;2024-02-21T15:58:09;96988.59;;;13.64;46.78
60228;BME280;46091;46.512;6.626;2024-02-21T16:00:13;96971.41;;;13.67;46.96
60228;BME280;46091;46.512;6.626;2024-02-21T16:02:16;96977.75;;;13.66;47.69
60228;BME280;46091;46.512;6.626;2024-02-21T16:04:19;96979.22;;;13.62;48.27
60228;BME280;46091;46.512;6.626;2024-02-21T16:06:22;96975.31;;;13.58;48.03
60228;BME280;46091;46.512;6.626;2024-02-21T16:08:25;96982.25;;;13.59;47.96
60228;BME280;46091;46.512;6.626;2024-02-21T16:10:28;96986.38;;;13.61;48.06
60228;BME280;46091;46.512;6.626;2024-02-21T16:12:31;96986.16;;;13.63;48.07
60228;BME280;46091;46.512;6.626;2024-02-21T16:14:36;96979.81;;;13.64;48.08
60228;BME280;46091;46.512;6.626;2024-02-21T16:16:40;96983.28;;;13.64;48.68
60228;BME280;46091;46.512;6.626;2024-02-21T16:18:44;96978.59;;;13.60;48.54
60228;BME280;46091;46.512;6.626;2024-02-21T16:20:48;96978.19;;;13.56;48.52
60228;BME280;46091;46.512;6.626;2024-02-21T16:22:51;96978.19;;;13.56;48.79
60228;BME280;46091;46.512;6.626;2024-02-21T16:24:54;96973.09;;;13.55;48.74
60228;BME280;46091;46.512;6.626;2024-02-21T16:26:57;96966.13;;;13.54;49.10
60228;BME280;46091;46.512;6.626;2024-02-21T16:29:00;96976.38;;;13.50;49.21
60228;BME280;46091;46.512;6.626;2024-02-21T16:31:05;96972.91;;;13.50;49.03
60228;BME280;46091;46.512;6.626;2024-02-21T16:33:09;96964.94;;;13.50;49.22
60228;BME280;46091;46.512;6.626;2024-02-21T16:35:11;96968.63;;;13.49;49.06
60228;BME280;46091;46.512;6.626;2024-02-21T16:37:15;96968.63;;;13.49;48.99
60228;BME280;46091;46.512;6.626;2024-02-21T16:39:18;96955.34;;;13.49;49.00
60228;BME280;46091;46.512;6.626;2024-02-21T16:41:21;96959.00;;;13.48;49.01
60228;BME280;46091;46.512;6.626;2024-02-21T16:43:26;96959.00;;;13.48;49.30
60228;BME280;46091;46.512;6.626;2024-02-21T16:45:29;96954.31;;;13.50;49.05
60228;BME280;46091;46.512;6.626;2024-02-21T16:47:33;96948.78;;;13.45;48.99
60228;BME280;46091;46.512;6.626;2024-02-21T16:49:36;96951.44;;;13.45;49.09
60228;BME280;46091;46.512;6.626;2024-02-21T16:51:39;96942.44;;;13.46;49.33
60228;BME280;46091;46.512;6.626;2024-02-21T16:53:43;96935.94;;;13.48;49.09
60228;BME280;46091;46.512;6.626;2024-02-21T16:55:46;96934.09;;;13.49;48.99
60228;BME280;46091;46.512;6.626;2024-02-21T16:57:50;96932.25;;;13.49;49.00
60228;BME280;46091;46.512;6.626;2024-02-21T16:59:53;96926.31;;;13.47;49.18